createdAt,value
2023-05-11T00:01:08.346Z,12.60
2023-05-11T00:03:36.492Z,12.60
2023-05-11T00:06:04.351Z,12.60
2023-05-11T00:08:31.890Z,12.70
2023-05-11T00:11:02.527Z,12.70
2023-05-11T00:13:30.122Z,12.70
2023-05-11T00:15:58.165Z,12.70
2023-05-11T00:18:26.073Z,12.60
2023-05-11T00:20:54.492Z,12.70
2023-05-11T00:23:22.071Z,12.70
2023-05-11T00:25:49.573Z,12.70
2023-05-11T00:28:17.056Z,12.80
2023-05-11T00:30:45.304Z,12.80
2023-05-11T00:33:12.841Z,12.80
2023-05-11T00:35:40.488Z,12.70
2023-05-11T00:38:07.980Z,12.70
2023-05-11T00:40:35.806Z,12.70
2023-05-11T00:43:03.361Z,12.70
2023-05-11T00:45:30.966Z,12.70
2023-05-11T00:47:58.732Z,12.70
2023-05-11T00:50:27.098Z,12.70
2023-05-11T00:52:57.662Z,12.70
2023-05-11T00:55:26.197Z,12.80
2023-05-11T00:57:53.952Z,12.80
2023-05-11T01:00:21.806Z,12.80
2023-05-11T01:02:49.647Z,12.80
2023-05-11T01:05:17.472Z,12.70
2023-05-11T01:08:06.749Z,12.70
2023-05-11T01:11:21.505Z,12.70
2023-05-11T01:14:16.651Z,12.60
2023-05-11T01:16:49.357Z,12.60
2023-05-11T01:19:56.538Z,12.60
2023-05-11T01:23:04.300Z,12.60
2023-05-11T01:26:08.151Z,12.50
2023-05-11T01:29:06.676Z,12.60
2023-05-11T01:31:35.277Z,12.60
2023-05-11T01:34:07.466Z,12.60
2023-05-11T01:36:42.756Z,12.60
2023-05-11T01:39:12.791Z,12.70
2023-05-11T01:41:45.720Z,12.50
2023-05-11T01:44:16.493Z,12.50
2023-05-11T01:46:44.423Z,12.60
2023-05-11T01:49:14.027Z,12.50
2023-05-11T01:51:43.853Z,12.50
2023-05-11T01:54:12.110Z,12.40
2023-05-11T01:56:43.136Z,12.40
2023-05-11T01:59:12.691Z,12.40
2023-05-11T02:01:41.296Z,12.40
2023-05-11T02:04:11.185Z,12.50
2023-05-11T02:06:39.947Z,12.50
2023-05-11T02:09:10.007Z,12.40
2023-05-11T02:11:40.314Z,12.40
2023-05-11T02:14:10.152Z,12.20
2023-05-11T02:16:38.785Z,12.30
2023-05-11T02:19:08.164Z,12.30
2023-05-11T02:21:38.136Z,12.20
2023-05-11T02:24:07.773Z,12.10
2023-05-11T02:26:36.713Z,12.10
2023-05-11T02:29:04.398Z,12.10
2023-05-11T02:31:42.404Z,12.20
2023-05-11T02:34:26.215Z,12.20
2023-05-11T02:37:00.909Z,12.30
2023-05-11T02:39:35.225Z,12.20
2023-05-11T02:42:18.180Z,12.20
2023-05-11T02:44:58.652Z,12.20
2023-05-11T02:47:31.548Z,12.30
2023-05-11T02:50:04.192Z,12.20
2023-05-11T02:52:36.271Z,12.20
2023-05-11T02:55:05.578Z,12.10
2023-05-11T02:57:33.642Z,12.10
2023-05-11T03:00:06.596Z,12.10
2023-05-11T03:02:34.439Z,12.10
2023-05-11T03:05:02.096Z,12.30
2023-05-11T03:07:32.919Z,12.30
2023-05-11T03:10:02.939Z,12.20
2023-05-11T03:12:35.570Z,12.30
2023-05-11T03:15:04.728Z,12.30
2023-05-11T03:17:35.826Z,12.20
2023-05-11T03:20:06.249Z,12.10
2023-05-11T03:22:36.895Z,12.20
2023-05-11T03:25:07.142Z,12.30
2023-05-11T03:27:36.025Z,12.30
2023-05-11T03:30:08.698Z,12.30
2023-05-11T03:32:41.058Z,12.30
2023-05-11T03:35:09.273Z,12.40
2023-05-11T03:37:39.247Z,12.30
2023-05-11T03:40:09.829Z,12.30
2023-05-11T03:42:57.121Z,12.20
2023-05-11T03:45:29.487Z,12.20
2023-05-11T03:47:57.908Z,12.20
2023-05-11T03:50:27.085Z,12.20
2023-05-11T03:52:55.918Z,12.20
2023-05-11T03:55:24.225Z,12.20
2023-05-11T03:57:52.420Z,12.20
2023-05-11T04:00:20.131Z,12.20
2023-05-11T04:02:47.990Z,12.20
2023-05-11T04:05:15.753Z,12.20
2023-05-11T04:07:46.248Z,12.10
2023-05-11T04:10:13.790Z,12.00
2023-05-11T04:12:42.381Z,12.10
2023-05-11T04:15:10.693Z,12.00
2023-05-11T04:17:38.390Z,12.10
2023-05-11T04:20:08.805Z,12.10
2023-05-11T04:22:36.328Z,12.10
2023-05-11T04:25:04.434Z,12.10
2023-05-11T04:27:34.328Z,12.10
2023-05-11T04:30:02.214Z,12.10
2023-05-11T04:32:30.322Z,12.20
2023-05-11T04:34:59.254Z,12.20
2023-05-11T04:37:29.598Z,12.20
2023-05-11T04:39:58.157Z,12.20
2023-05-11T04:42:25.704Z,12.20
2023-05-11T04:44:55.899Z,12.00
2023-05-11T04:47:23.417Z,11.90
2023-05-11T04:49:51.839Z,11.90
2023-05-11T04:52:19.357Z,11.80
2023-05-11T04:54:49.546Z,11.90
2023-05-11T04:57:17.790Z,11.90
2023-05-11T04:59:47.247Z,12.00
2023-05-11T05:02:14.830Z,12.10
2023-05-11T05:04:42.319Z,12.10
2023-05-11T05:07:10.457Z,12.20
2023-05-11T05:09:37.957Z,12.20
2023-05-11T05:12:05.744Z,12.20
2023-05-11T05:14:33.311Z,12.30
2023-05-11T05:17:02.301Z,12.30
2023-05-11T05:19:30.546Z,12.30
2023-05-11T05:21:58.635Z,12.40
2023-05-11T05:24:26.416Z,12.30
2023-05-11T05:26:53.927Z,12.20
2023-05-11T05:29:22.032Z,12.10
2023-05-11T05:31:49.919Z,12.00
2023-05-11T05:34:18.812Z,12.10
2023-05-11T05:36:46.354Z,12.10
2023-05-11T05:39:14.470Z,12.00
2023-05-11T05:41:42.758Z,12.00
2023-05-11T05:44:11.289Z,12.00
2023-05-11T05:46:39.778Z,12.10
2023-05-11T05:49:07.592Z,12.20
2023-05-11T05:51:37.620Z,12.10
2023-05-11T05:54:05.956Z,12.10
2023-05-11T05:56:35.006Z,12.10
2023-05-11T05:59:02.723Z,12.20
2023-05-11T06:01:30.379Z,12.30
2023-05-11T06:03:59.014Z,12.20
2023-05-11T06:06:27.109Z,12.20
2023-05-11T06:08:54.679Z,12.30
2023-05-11T06:11:22.520Z,12.20
2023-05-11T06:13:52.064Z,12.30
2023-05-11T06:16:20.299Z,12.30
2023-05-11T06:18:49.120Z,12.30
2023-05-11T06:21:16.927Z,12.40
2023-05-11T06:23:44.666Z,12.50
2023-05-11T06:26:12.455Z,12.50
2023-05-11T06:28:40.724Z,12.50
2023-05-11T06:31:13.545Z,12.50
2023-05-11T06:33:42.420Z,12.50
2023-05-11T06:36:18.255Z,12.50
2023-05-11T06:38:46.387Z,12.60
2023-05-11T06:41:13.974Z,12.50
2023-05-11T06:43:42.462Z,12.30
2023-05-11T06:46:22.137Z,12.20
2023-05-11T06:48:50.300Z,12.30
2023-05-11T06:51:17.961Z,12.30
2023-05-11T06:53:45.529Z,12.40
2023-05-11T06:56:13.052Z,12.30
2023-05-11T06:58:40.531Z,12.20
2023-05-11T07:01:08.138Z,12.20
2023-05-11T07:03:36.377Z,12.30
2023-05-11T07:06:04.074Z,12.30
2023-05-11T07:08:31.674Z,12.40
2023-05-11T07:10:59.419Z,12.40
2023-05-11T07:13:26.889Z,12.40
2023-05-11T07:15:57.195Z,12.40
2023-05-11T07:18:25.277Z,12.40
2023-05-11T07:20:52.939Z,12.50
2023-05-11T07:23:20.427Z,12.50
2023-05-11T07:25:48.000Z,12.50
2023-05-11T07:28:15.459Z,12.60
2023-05-11T07:30:42.997Z,12.70
2023-05-11T07:33:10.573Z,12.80
2023-05-11T07:35:38.227Z,12.60
2023-05-11T07:38:07.933Z,12.70
2023-05-11T07:40:35.655Z,12.70
2023-05-11T07:43:03.166Z,12.70
2023-05-11T07:45:31.380Z,12.70
2023-05-11T07:47:58.949Z,12.60
2023-05-11T07:50:26.712Z,12.50
2023-05-11T07:52:54.529Z,12.40
2023-05-11T07:55:24.917Z,12.30
2023-05-11T07:57:54.383Z,12.30
2023-05-11T08:00:22.293Z,12.30
2023-05-11T08:02:49.966Z,12.40
2023-05-11T08:05:18.687Z,12.50
2023-05-11T08:07:47.255Z,12.50
2023-05-11T08:10:14.915Z,12.50
2023-05-11T08:12:42.791Z,12.40
2023-05-11T08:15:11.018Z,12.40
2023-05-11T08:17:38.610Z,12.50
2023-05-11T08:20:07.149Z,12.60
2023-05-11T08:22:34.899Z,12.70
2023-05-11T08:25:03.705Z,12.90
2023-05-11T08:27:31.235Z,12.90
2023-05-11T08:30:00.113Z,12.90
2023-05-11T08:32:27.690Z,12.80
2023-05-11T08:34:55.289Z,12.70
2023-05-11T08:37:23.465Z,12.60
2023-05-11T08:39:51.430Z,12.60
2023-05-11T08:42:19.972Z,12.80
2023-05-11T08:44:49.272Z,12.70
2023-05-11T08:47:23.324Z,12.90
2023-05-11T08:49:54.858Z,12.90
2023-05-11T08:52:22.390Z,13.00
2023-05-11T08:54:49.982Z,12.80
2023-05-11T08:57:18.089Z,12.90
2023-05-11T08:59:49.151Z,12.80
2023-05-11T09:02:20.321Z,12.70
2023-05-11T09:04:49.474Z,12.60
2023-05-11T09:07:17.863Z,12.70
2023-05-11T09:09:47.780Z,12.60
2023-05-11T09:12:16.949Z,12.70
2023-05-11T09:14:46.588Z,12.60
2023-05-11T09:17:14.309Z,12.60
2023-05-11T09:20:02.023Z,12.70
2023-05-11T09:22:33.818Z,12.80
2023-05-11T09:25:04.226Z,12.80
2023-05-11T09:27:32.310Z,12.80
2023-05-11T09:30:23.310Z,12.80
2023-05-11T09:33:00.350Z,12.80
2023-05-11T09:35:35.484Z,12.90
2023-05-11T09:38:14.122Z,12.90
2023-05-11T09:40:50.314Z,12.80
2023-05-11T09:43:25.775Z,12.70
2023-05-11T09:46:01.569Z,12.70
2023-05-11T09:48:32.050Z,12.70
2023-05-11T09:51:06.071Z,12.90
2023-05-11T09:53:45.788Z,12.90
2023-05-11T09:56:15.486Z,12.80
2023-05-11T09:58:57.189Z,12.80
2023-05-11T10:01:35.013Z,12.80
2023-05-11T10:04:20.993Z,12.80
2023-05-11T10:06:53.151Z,12.90
2023-05-11T10:09:25.344Z,12.90
2023-05-11T10:11:55.322Z,12.80
2023-05-11T10:14:24.024Z,12.90
2023-05-11T10:16:52.161Z,12.80
2023-05-11T10:19:20.112Z,12.80
2023-05-11T10:21:48.092Z,12.80
2023-05-11T10:24:18.851Z,12.90
2023-05-11T10:26:48.531Z,12.70
2023-05-11T10:29:19.474Z,12.80
2023-05-11T10:31:48.743Z,12.90
2023-05-11T10:34:17.625Z,13.00
2023-05-11T10:36:47.269Z,12.80
2023-05-11T10:39:14.753Z,13.10
2023-05-11T10:42:06.307Z,13.30
2023-05-11T10:45:06.963Z,13.20
2023-05-11T10:48:10.231Z,13.20
2023-05-11T10:50:49.614Z,13.30
2023-05-11T10:54:10.777Z,13.10
2023-05-11T10:57:02.283Z,13.10
2023-05-11T11:00:14.042Z,13.30
2023-05-11T11:02:42.918Z,13.40
2023-05-11T11:05:15.710Z,13.30
2023-05-11T11:08:04.141Z,13.30
2023-05-11T11:10:45.948Z,13.20
2023-05-11T11:13:14.946Z,13.30
2023-05-11T11:16:05.703Z,13.40
2023-05-11T11:18:33.952Z,13.00
2023-05-11T11:21:02.479Z,13.10
2023-05-11T11:23:50.453Z,13.30
2023-05-11T11:26:50.346Z,13.40
2023-05-11T11:29:18.020Z,13.40
2023-05-11T11:31:45.635Z,13.20
2023-05-11T11:34:28.000Z,13.30
2023-05-11T11:36:55.428Z,13.30
2023-05-11T11:39:25.408Z,13.40
2023-05-11T11:42:07.125Z,13.40
2023-05-11T11:44:35.436Z,13.70
2023-05-11T11:47:22.825Z,13.50
2023-05-11T11:49:53.593Z,13.50
2023-05-11T11:52:27.140Z,13.70
2023-05-11T11:54:57.092Z,13.80
2023-05-11T11:57:46.549Z,13.90
2023-05-11T12:00:19.893Z,14.10
2023-05-11T12:02:47.518Z,13.90
2023-05-11T12:05:21.411Z,13.90
2023-05-11T12:07:51.535Z,14.10
2023-05-11T12:10:23.075Z,14.10
2023-05-11T12:12:54.926Z,14.00
2023-05-11T12:15:32.339Z,13.90
2023-05-11T12:18:02.720Z,14.20
2023-05-11T12:20:30.440Z,14.50
2023-05-11T12:22:57.964Z,14.90
2023-05-11T12:25:25.523Z,14.90
2023-05-11T12:28:03.183Z,14.90
2023-05-11T12:30:33.676Z,14.80
2023-05-11T12:33:04.258Z,14.80
2023-05-11T12:35:34.115Z,14.80
2023-05-11T12:38:02.787Z,14.90
2023-05-11T12:40:31.664Z,14.60
2023-05-11T12:43:00.485Z,14.40
2023-05-11T12:45:29.104Z,14.40
2023-05-11T12:47:58.284Z,14.60
2023-05-11T12:50:25.837Z,14.70
2023-05-11T12:52:53.364Z,14.80
2023-05-11T12:55:30.975Z,15.00
2023-05-11T12:58:18.552Z,15.20
2023-05-11T13:00:57.947Z,15.20
2023-05-11T13:03:28.682Z,15.40
2023-05-11T13:06:08.067Z,15.50
2023-05-11T13:08:44.030Z,15.60
2023-05-11T13:11:24.460Z,15.70
2023-05-11T13:13:54.183Z,15.70
2023-05-11T13:16:33.495Z,15.80
2023-05-11T13:19:03.787Z,15.70
2023-05-11T13:21:33.132Z,15.50
2023-05-11T13:24:03.691Z,15.70
2023-05-11T13:26:31.780Z,15.80
2023-05-11T13:29:10.261Z,15.70
2023-05-11T13:31:50.617Z,15.70
2023-05-11T13:34:19.714Z,15.70
2023-05-11T13:36:47.960Z,15.70
2023-05-11T13:39:15.539Z,15.70
2023-05-11T13:41:43.355Z,15.90
2023-05-11T13:44:11.164Z,16.00
2023-05-11T13:46:38.800Z,16.10
2023-05-11T13:49:06.641Z,16.30
2023-05-11T13:51:34.271Z,16.20
2023-05-11T13:54:02.537Z,16.10
2023-05-11T13:56:31.460Z,15.90
2023-05-11T13:59:00.068Z,16.00
2023-05-11T14:01:28.165Z,16.10
2023-05-11T14:03:56.939Z,16.10
2023-05-11T14:06:25.585Z,16.20
2023-05-11T14:08:53.764Z,16.20
2023-05-11T14:11:21.465Z,16.10
2023-05-11T14:13:49.389Z,16.30
2023-05-11T14:16:20.815Z,16.30
2023-05-11T14:18:50.585Z,16.40
2023-05-11T14:21:18.287Z,16.60
2023-05-11T14:23:57.538Z,16.70
2023-05-11T14:26:33.392Z,16.80
2023-05-11T14:29:00.949Z,16.70
2023-05-11T14:31:29.008Z,16.70
2023-05-11T14:33:56.570Z,16.70
2023-05-11T14:36:24.182Z,16.50
2023-05-11T14:38:51.924Z,16.50
2023-05-11T14:41:19.721Z,16.60
2023-05-11T14:43:49.141Z,16.80
2023-05-11T14:46:17.711Z,17.00
2023-05-11T14:48:45.403Z,17.00
2023-05-11T14:51:13.015Z,16.90
2023-05-11T14:53:40.577Z,17.00
2023-05-11T14:56:08.204Z,17.00
2023-05-11T14:58:35.901Z,17.00
2023-05-11T15:01:04.812Z,17.00
2023-05-11T15:03:32.351Z,17.10
2023-05-11T15:05:59.953Z,17.10
2023-05-11T15:08:30.522Z,17.20
2023-05-11T15:10:58.853Z,17.20
2023-05-11T15:13:26.712Z,16.80
2023-05-11T15:15:54.334Z,16.60
2023-05-11T15:18:22.013Z,16.50
2023-05-11T15:20:49.699Z,16.60
2023-05-11T15:23:17.712Z,16.70
2023-05-11T15:25:46.187Z,16.90
2023-05-11T15:28:14.164Z,16.90
2023-05-11T15:30:42.074Z,16.90
2023-05-11T15:33:10.311Z,16.90
2023-05-11T15:35:38.259Z,16.80
2023-05-11T15:38:06.352Z,16.80
2023-05-11T15:40:34.026Z,16.80
2023-05-11T15:43:01.657Z,16.80
2023-05-11T15:45:30.151Z,16.70
2023-05-11T15:47:58.255Z,16.50
2023-05-11T15:50:26.175Z,16.40
2023-05-11T15:52:53.741Z,16.50
2023-05-11T15:55:21.317Z,16.60
2023-05-11T15:57:49.153Z,16.70
2023-05-11T16:00:17.381Z,16.80
2023-05-11T16:02:45.764Z,16.90
2023-05-11T16:05:13.521Z,16.90
2023-05-11T16:07:41.039Z,16.80
2023-05-11T16:10:09.150Z,16.60
2023-05-11T16:12:36.670Z,16.60
2023-05-11T16:15:05.238Z,16.60
2023-05-11T16:17:32.751Z,16.40
2023-05-11T16:20:00.353Z,16.40
2023-05-11T16:22:28.051Z,16.40
2023-05-11T16:24:55.562Z,16.50
2023-05-11T16:27:23.557Z,16.60
2023-05-11T16:29:52.215Z,16.70
2023-05-11T16:32:20.296Z,16.70
2023-05-11T16:34:47.866Z,16.70
2023-05-11T16:37:16.097Z,16.70
2023-05-11T16:39:44.581Z,16.70
2023-05-11T16:42:12.101Z,16.70
2023-05-11T16:44:39.685Z,16.70
2023-05-11T16:47:07.275Z,16.70
2023-05-11T16:49:34.854Z,16.70
2023-05-11T16:52:02.356Z,16.60
2023-05-11T16:54:29.899Z,16.60
2023-05-11T16:56:57.466Z,16.60
2023-05-11T16:59:25.015Z,16.60
2023-05-11T17:01:52.518Z,16.60
2023-05-11T17:04:20.638Z,16.60
2023-05-11T17:06:48.340Z,16.50
2023-05-11T17:09:16.104Z,16.40
2023-05-11T17:11:43.675Z,16.20
2023-05-11T17:14:11.208Z,16.20
2023-05-11T17:16:38.796Z,16.20
2023-05-11T17:19:06.389Z,16.20
2023-05-11T17:21:34.082Z,16.10
2023-05-11T17:24:01.750Z,16.10
2023-05-11T17:26:43.340Z,16.10
2023-05-11T17:29:15.895Z,16.10
2023-05-11T17:31:43.616Z,16.00
2023-05-11T17:34:11.399Z,15.90
2023-05-11T17:36:39.124Z,15.80
2023-05-11T17:39:06.716Z,15.80
2023-05-11T17:41:34.223Z,15.80
2023-05-11T17:44:01.777Z,15.80
2023-05-11T17:46:29.896Z,15.70
2023-05-11T17:48:58.109Z,15.70
2023-05-11T17:51:25.824Z,15.70
2023-05-11T17:53:53.462Z,15.60
2023-05-11T17:56:22.193Z,15.60
2023-05-11T17:58:51.487Z,15.50
2023-05-11T18:01:19.596Z,15.40
2023-05-11T18:03:47.433Z,15.40
2023-05-11T18:06:15.052Z,15.40
2023-05-11T18:08:42.680Z,15.30
2023-05-11T18:11:11.095Z,15.30
2023-05-11T18:13:38.612Z,15.20
2023-05-11T18:16:06.897Z,15.30
2023-05-11T18:18:34.670Z,15.30
2023-05-11T18:21:10.660Z,15.20
2023-05-11T18:23:38.418Z,15.20
2023-05-11T18:26:06.737Z,15.10
2023-05-11T18:28:34.435Z,15.10
2023-05-11T18:31:01.979Z,15.00
2023-05-11T18:33:29.556Z,14.90
2023-05-11T18:35:57.098Z,14.80
2023-05-11T18:38:24.578Z,14.80
2023-05-11T18:40:53.716Z,14.80
2023-05-11T18:43:21.303Z,14.80
2023-05-11T18:45:50.177Z,14.80
2023-05-11T18:48:17.656Z,14.70
2023-05-11T18:50:45.168Z,14.70
2023-05-11T18:53:12.668Z,14.70
2023-05-11T18:55:52.094Z,14.60
2023-05-11T18:58:20.660Z,14.60
2023-05-11T19:00:50.095Z,14.60
2023-05-11T19:03:19.828Z,14.60
2023-05-11T19:05:48.582Z,14.60
2023-05-11T19:08:16.564Z,14.50
2023-05-11T19:10:45.292Z,14.40
2023-05-11T19:13:13.287Z,14.30
2023-05-11T19:15:40.795Z,14.30
2023-05-11T19:18:08.354Z,14.30
2023-05-11T19:20:36.640Z,14.20
2023-05-11T19:23:05.118Z,14.20
2023-05-11T19:25:32.864Z,14.10
2023-05-11T19:28:01.025Z,14.10
2023-05-11T19:30:28.524Z,14.00
2023-05-11T19:32:56.032Z,14.00
2023-05-11T19:35:23.716Z,13.90
2023-05-11T19:37:51.272Z,14.00
2023-05-11T19:40:44.674Z,13.90
2023-05-11T19:43:08.372Z,13.90
2023-05-11T19:45:37.264Z,13.90
2023-05-11T19:48:05.158Z,13.90
2023-05-11T19:50:32.896Z,13.90
2023-05-11T19:53:00.404Z,13.90
2023-05-11T19:55:27.874Z,13.90
2023-05-11T19:57:55.430Z,14.00
2023-05-11T20:00:25.156Z,14.00
2023-05-11T20:02:53.562Z,14.00
2023-05-11T20:05:21.311Z,14.10
2023-05-11T20:07:48.829Z,14.00
2023-05-11T20:10:16.771Z,14.00
2023-05-11T20:12:44.570Z,14.00
2023-05-11T20:15:12.139Z,14.00
2023-05-11T20:17:40.041Z,14.00
2023-05-11T20:20:08.661Z,13.80
2023-05-11T20:22:37.276Z,13.70
2023-05-11T20:25:13.944Z,13.70
2023-05-11T20:27:45.309Z,13.70
2023-05-11T20:30:13.400Z,13.60
2023-05-11T20:34:06.754Z,13.60
2023-05-11T20:35:29.258Z,13.60
2023-05-11T20:37:57.058Z,13.60
2023-05-11T20:40:25.512Z,13.60
2023-05-11T20:42:53.068Z,13.60
2023-05-11T20:45:20.715Z,13.50
2023-05-11T20:47:48.247Z,13.40
2023-05-11T20:50:15.869Z,13.30
2023-05-11T20:52:43.363Z,13.30
2023-05-11T20:55:11.007Z,13.30
2023-05-11T20:57:38.504Z,13.30
2023-05-11T21:00:07.585Z,13.30
2023-05-11T21:02:35.323Z,13.20
2023-05-11T21:05:03.840Z,13.20
2023-05-11T21:07:31.382Z,13.20
2023-05-11T21:09:59.145Z,13.10
2023-05-11T21:12:26.697Z,13.10
2023-05-11T21:14:56.703Z,13.10
2023-05-11T21:17:24.613Z,13.20
2023-05-11T21:19:52.178Z,13.10
2023-05-11T21:22:19.765Z,13.20
2023-05-11T21:24:47.514Z,13.20
2023-05-11T21:27:15.118Z,13.10
2023-05-11T21:29:42.619Z,13.10
2023-05-11T21:32:10.751Z,13.20
2023-05-11T21:34:38.510Z,13.20
2023-05-11T21:37:06.376Z,13.20
2023-05-11T21:39:33.996Z,13.20
2023-05-11T21:42:03.483Z,13.10
2023-05-11T21:44:30.940Z,13.10
2023-05-11T21:46:58.630Z,13.10
2023-05-11T21:49:26.271Z,13.10
2023-05-11T21:51:53.810Z,13.10
2023-05-11T21:54:22.370Z,13.10
2023-05-11T21:56:52.029Z,13.00
2023-05-11T21:59:19.813Z,13.00
2023-05-11T22:01:49.005Z,12.90
2023-05-11T22:04:16.777Z,12.90
2023-05-11T22:06:44.343Z,13.00
2023-05-11T22:09:12.102Z,13.10
2023-05-11T22:11:39.752Z,13.10
2023-05-11T22:14:07.221Z,13.10
2023-05-11T22:16:34.782Z,13.10
2023-05-11T22:19:02.432Z,13.10
2023-05-11T22:21:30.049Z,13.10
2023-05-11T22:23:57.824Z,13.10
2023-05-11T22:26:26.342Z,13.10
2023-05-11T22:28:53.878Z,13.10
2023-05-11T22:31:21.438Z,13.10
2023-05-11T22:33:49.039Z,13.20
2023-05-11T22:36:16.516Z,13.10
2023-05-11T22:38:44.085Z,13.10
2023-05-11T22:41:11.593Z,13.10
2023-05-11T22:43:39.059Z,13.10
2023-05-11T22:46:06.907Z,13.10
2023-05-11T22:48:34.498Z,13.00
2023-05-11T22:51:06.132Z,13.10
2023-05-11T22:53:33.730Z,13.10
2023-05-11T22:56:07.316Z,13.00
2023-05-11T22:58:35.477Z,13.00
2023-05-11T23:01:03.508Z,13.00
2023-05-11T23:03:31.175Z,12.90
2023-05-11T23:05:58.741Z,12.90
2023-05-11T23:08:26.590Z,12.90
2023-05-11T23:10:54.132Z,13.00
2023-05-11T23:13:21.648Z,12.90
2023-05-11T23:15:49.286Z,12.90
2023-05-11T23:18:16.925Z,12.90
2023-05-11T23:20:44.598Z,12.90
2023-05-11T23:23:12.141Z,12.90
2023-05-11T23:25:39.667Z,12.80
2023-05-11T23:28:11.388Z,12.80
2023-05-11T23:30:39.041Z,12.90
2023-05-11T23:33:06.929Z,12.90
2023-05-11T23:35:34.436Z,13.00
2023-05-11T23:38:01.985Z,13.00
2023-05-11T23:40:29.833Z,13.00
2023-05-11T23:42:57.439Z,12.90
2023-05-11T23:45:26.079Z,12.90
2023-05-11T23:47:53.758Z,12.80
2023-05-11T23:50:21.405Z,12.80
2023-05-11T23:52:49.598Z,12.80
2023-05-11T23:55:17.272Z,12.90
2023-05-11T23:57:44.967Z,12.90
